createdAt,value
2022-12-01T00:01:59.349Z,16.08
2022-12-01T00:04:25.951Z,15.80
2022-12-01T00:06:52.626Z,15.35
2022-12-01T00:09:20.652Z,16.52
2022-12-01T00:11:47.469Z,15.80
2022-12-01T00:14:14.054Z,15.63
2022-12-01T00:16:40.652Z,16.13
2022-12-01T00:19:07.439Z,16.45
2022-12-01T00:21:34.022Z,16.60
2022-12-01T00:24:00.550Z,15.90
2022-12-01T00:26:28.688Z,17.13
2022-12-01T00:28:56.664Z,16.65
2022-12-01T00:31:24.109Z,16.08
2022-12-01T00:33:50.954Z,17.90
2022-12-01T00:36:17.535Z,17.57
2022-12-01T00:38:44.083Z,17.15
2022-12-01T00:41:10.955Z,18.42
2022-12-01T00:43:38.934Z,19.23
2022-12-01T00:46:05.700Z,17.83
2022-12-01T00:48:32.392Z,16.83
2022-12-01T00:50:59.069Z,17.10
2022-12-01T00:53:25.635Z,17.67
2022-12-01T00:55:52.237Z,17.52
2022-12-01T00:58:18.812Z,17.17
2022-12-01T01:00:46.703Z,17.30
2022-12-01T01:03:13.471Z,17.80
2022-12-01T01:05:42.158Z,17.88
2022-12-01T01:08:09.779Z,18.15
2022-12-01T01:10:38.096Z,17.80
2022-12-01T01:13:05.068Z,18.03
2022-12-01T01:15:31.567Z,18.25
2022-12-01T01:17:59.651Z,18.40
2022-12-01T01:20:26.369Z,17.73
2022-12-01T01:22:53.096Z,18.88
2022-12-01T01:25:19.630Z,18.10
2022-12-01T01:27:46.203Z,17.88
2022-12-01T01:30:15.490Z,18.85
2022-12-01T01:32:42.104Z,20.38
2022-12-01T01:35:10.257Z,18.50
2022-12-01T01:37:36.902Z,18.57
2022-12-01T01:40:04.334Z,18.00
2022-12-01T01:42:30.860Z,18.15
2022-12-01T01:44:58.610Z,18.60
2022-12-01T01:47:27.927Z,18.15
2022-12-01T01:49:57.202Z,18.03
2022-12-01T01:52:25.387Z,17.88
2022-12-01T01:54:55.538Z,17.52
2022-12-01T01:57:26.733Z,17.85
2022-12-01T01:59:58.050Z,16.80
2022-12-01T02:02:24.670Z,17.90
2022-12-01T02:04:56.834Z,17.42
2022-12-01T02:07:24.798Z,18.13
2022-12-01T02:09:52.669Z,19.13
2022-12-01T02:12:34.296Z,17.88
2022-12-01T02:15:12.947Z,18.20
2022-12-01T02:17:47.745Z,18.17
2022-12-01T02:20:45.458Z,18.27
2022-12-01T02:23:52.854Z,17.35
2022-12-01T02:26:36.290Z,17.50
2022-12-01T02:29:45.581Z,18.90
2022-12-01T02:32:21.890Z,18.83
2022-12-01T02:34:57.494Z,18.90
2022-12-01T02:37:31.813Z,19.25
2022-12-01T02:40:05.839Z,19.42
2022-12-01T02:42:39.574Z,18.23
2022-12-01T02:45:13.415Z,18.58
2022-12-01T02:47:43.749Z,19.45
2022-12-01T02:50:11.687Z,19.60
2022-12-01T02:52:40.042Z,19.10
2022-12-01T02:55:07.176Z,18.33
2022-12-01T02:57:33.717Z,18.65
2022-12-01T03:00:00.993Z,19.25
2022-12-01T03:02:35.432Z,17.77
2022-12-01T03:05:07.970Z,17.58
2022-12-01T03:07:45.847Z,17.97
2022-12-01T03:10:21.525Z,18.05
2022-12-01T03:13:00.302Z,19.63
2022-12-01T03:15:34.002Z,18.75
2022-12-01T03:18:09.399Z,18.98
2022-12-01T03:20:42.555Z,19.13
2022-12-01T03:23:13.402Z,18.77
2022-12-01T03:25:44.024Z,17.63
2022-12-01T03:28:21.304Z,18.63
2022-12-01T03:30:52.555Z,18.20
2022-12-01T03:33:25.345Z,18.30
2022-12-01T03:35:58.331Z,19.25
2022-12-01T03:38:26.793Z,17.33
2022-12-01T03:40:58.137Z,18.25
2022-12-01T03:43:28.107Z,18.35
2022-12-01T03:45:58.661Z,17.87
2022-12-01T03:48:26.780Z,18.65
2022-12-01T03:51:01.733Z,18.58
2022-12-01T03:53:38.008Z,18.90
2022-12-01T03:56:07.309Z,17.23
2022-12-01T03:58:37.920Z,17.10
2022-12-01T04:01:05.428Z,17.58
2022-12-01T04:03:32.012Z,17.25
2022-12-01T04:06:00.588Z,17.00
2022-12-01T04:08:27.453Z,17.27
2022-12-01T04:10:53.934Z,16.80
2022-12-01T04:13:20.496Z,16.45
2022-12-01T04:15:47.080Z,17.80
2022-12-01T04:18:13.683Z,16.75
2022-12-01T04:20:40.234Z,16.95
2022-12-01T04:23:08.108Z,17.03
2022-12-01T04:25:34.597Z,16.65
2022-12-01T04:28:01.160Z,18.33
2022-12-01T04:30:27.694Z,16.25
2022-12-01T04:32:54.262Z,17.17
2022-12-01T04:35:20.954Z,17.23
2022-12-01T04:37:47.445Z,17.63
2022-12-01T04:40:15.642Z,18.60
2022-12-01T04:42:42.190Z,18.45
2022-12-01T04:45:10.035Z,17.83
2022-12-01T04:47:36.724Z,17.47
2022-12-01T04:50:03.553Z,17.20
2022-12-01T04:52:35.009Z,17.30
2022-12-01T04:55:02.496Z,17.77
2022-12-01T04:57:30.425Z,17.52
2022-12-01T04:59:57.083Z,17.80
2022-12-01T05:02:23.705Z,17.23
2022-12-01T05:04:50.244Z,18.15
2022-12-01T05:07:16.897Z,16.88
2022-12-01T05:09:43.438Z,17.35
2022-12-01T05:12:09.984Z,15.87
2022-12-01T05:14:37.867Z,16.55
2022-12-01T05:17:04.433Z,17.42
2022-12-01T05:19:30.974Z,17.77
2022-12-01T05:21:57.662Z,16.95
2022-12-01T05:24:24.356Z,17.20
2022-12-01T05:26:51.093Z,16.73
2022-12-01T05:29:17.881Z,18.35
2022-12-01T05:31:46.675Z,16.73
2022-12-01T05:34:13.721Z,16.83
2022-12-01T05:36:40.285Z,16.40
2022-12-01T05:39:07.025Z,16.48
2022-12-01T05:41:33.596Z,16.70
2022-12-01T05:44:00.194Z,17.55
2022-12-01T05:46:26.830Z,17.25
2022-12-01T05:48:54.811Z,16.13
2022-12-01T05:51:21.542Z,17.48
2022-12-01T05:53:48.129Z,16.77
2022-12-01T05:56:14.866Z,17.15
2022-12-01T05:58:41.434Z,17.13
2022-12-01T06:01:08.185Z,17.53
2022-12-01T06:03:34.896Z,15.40
2022-12-01T06:06:02.848Z,16.35
2022-12-01T06:08:29.565Z,15.75
2022-12-01T06:10:56.265Z,16.20
2022-12-01T06:13:22.848Z,14.93
2022-12-01T06:15:56.994Z,16.70
2022-12-01T06:18:24.321Z,16.55
2022-12-01T06:20:51.110Z,15.95
2022-12-01T06:23:19.050Z,15.55
2022-12-01T06:25:45.586Z,14.60
2022-12-01T06:28:12.158Z,16.30
2022-12-01T06:30:38.751Z,16.75
2022-12-01T06:33:05.603Z,15.18
2022-12-01T06:35:32.329Z,16.17
2022-12-01T06:37:59.116Z,17.10
2022-12-01T06:40:28.166Z,15.40
2022-12-01T06:42:54.834Z,17.10
2022-12-01T06:45:21.340Z,15.88
2022-12-01T06:47:48.107Z,16.08
2022-12-01T06:50:14.866Z,15.90
2022-12-01T06:52:41.410Z,17.42
2022-12-01T06:55:08.949Z,17.02
2022-12-01T06:57:37.048Z,16.20
2022-12-01T07:00:04.750Z,16.10
2022-12-01T07:02:31.719Z,14.60
2022-12-01T07:04:58.453Z,16.05
2022-12-01T07:07:25.035Z,16.65
2022-12-01T07:09:51.979Z,15.18
2022-12-01T07:12:18.614Z,15.95
2022-12-01T07:14:46.695Z,14.73
2022-12-01T07:17:13.197Z,16.30
2022-12-01T07:19:39.778Z,16.10
2022-12-01T07:22:06.285Z,15.40
2022-12-01T07:24:32.829Z,15.13
2022-12-01T07:26:59.458Z,14.97
2022-12-01T07:29:25.992Z,13.38
2022-12-01T07:31:53.891Z,15.10
2022-12-01T07:34:20.484Z,14.32
2022-12-01T07:36:47.044Z,14.95
2022-12-01T07:39:13.573Z,13.23
2022-12-01T07:41:40.077Z,13.23
2022-12-01T07:44:07.129Z,13.73
2022-12-01T07:46:33.729Z,13.30
2022-12-01T07:49:05.081Z,12.98
2022-12-01T07:51:31.727Z,11.63
2022-12-01T07:54:02.299Z,10.52
2022-12-01T07:56:29.153Z,11.65
2022-12-01T07:58:55.768Z,12.23
2022-12-01T08:01:23.841Z,12.55
2022-12-01T08:03:51.915Z,12.93
2022-12-01T08:06:20.319Z,11.82
2022-12-01T08:08:47.402Z,11.55
2022-12-01T08:11:16.114Z,11.93
2022-12-01T08:13:43.652Z,12.07
2022-12-01T08:16:12.997Z,11.33
2022-12-01T08:18:40.853Z,11.65
2022-12-01T08:21:09.194Z,11.85
2022-12-01T08:23:37.193Z,10.05
2022-12-01T08:26:05.755Z,11.00
2022-12-01T08:28:35.184Z,11.87
2022-12-01T08:31:07.619Z,9.40
2022-12-01T08:33:34.171Z,10.40
2022-12-01T08:36:02.007Z,10.55
2022-12-01T08:38:28.548Z,10.82
2022-12-01T08:41:00.201Z,9.10
2022-12-01T08:43:56.002Z,8.45
2022-12-01T08:46:14.126Z,8.95
2022-12-01T08:48:40.904Z,7.97
2022-12-01T08:51:09.591Z,9.05
2022-12-01T08:53:42.564Z,8.23
2022-12-01T08:56:16.512Z,9.23
2022-12-01T08:58:43.350Z,8.27
2022-12-01T09:01:12.855Z,9.43
2022-12-01T09:03:39.978Z,10.13
2022-12-01T09:06:08.759Z,10.27
2022-12-01T09:08:36.458Z,10.93
2022-12-01T09:11:04.778Z,11.60
2022-12-01T09:13:34.424Z,10.52
2022-12-01T09:16:04.383Z,10.75
2022-12-01T09:18:31.208Z,10.23
2022-12-01T09:20:58.658Z,9.82
2022-12-01T09:23:26.246Z,10.25
2022-12-01T09:25:53.694Z,9.93
2022-12-01T09:28:20.378Z,10.45
2022-12-01T09:30:48.271Z,10.60
2022-12-01T09:33:15.037Z,10.90
2022-12-01T09:35:41.600Z,11.13
2022-12-01T09:38:08.139Z,10.88
2022-12-01T09:40:37.165Z,11.65
2022-12-01T09:43:05.842Z,11.50
2022-12-01T09:45:36.657Z,12.50
2022-12-01T09:48:06.513Z,11.20
2022-12-01T09:50:34.237Z,9.18
2022-12-01T09:53:06.249Z,11.75
2022-12-01T09:55:34.188Z,11.33
2022-12-01T09:58:03.378Z,11.77
2022-12-01T10:00:32.841Z,12.10
2022-12-01T10:03:10.172Z,12.02
2022-12-01T10:06:10.215Z,11.98
2022-12-01T10:08:34.810Z,10.17
2022-12-01T10:11:08.405Z,10.75
2022-12-01T10:13:35.002Z,10.45
2022-12-01T10:16:09.591Z,10.63
2022-12-01T10:18:49.579Z,11.05
2022-12-01T10:21:28.118Z,10.47
2022-12-01T10:24:09.550Z,10.40
2022-12-01T10:26:49.623Z,10.63
2022-12-01T10:29:26.697Z,10.15
2022-12-01T10:31:54.721Z,11.35
2022-12-01T10:34:25.116Z,9.73
2022-12-01T10:36:51.713Z,9.77
2022-12-01T10:39:22.541Z,10.07
2022-12-01T10:41:50.031Z,9.73
2022-12-01T10:44:18.334Z,11.43
2022-12-01T10:46:49.290Z,10.53
2022-12-01T10:49:17.398Z,10.40
2022-12-01T10:51:52.581Z,11.25
2022-12-01T10:54:20.816Z,10.80
2022-12-01T10:56:49.014Z,10.82
2022-12-01T10:59:26.850Z,10.20
2022-12-01T11:01:54.485Z,10.77
2022-12-01T11:04:40.192Z,10.48
2022-12-01T11:07:15.886Z,10.98
2022-12-01T11:09:46.050Z,11.38
2022-12-01T11:12:16.589Z,10.57
2022-12-01T11:14:45.617Z,10.65
2022-12-01T11:17:25.078Z,11.65
2022-12-01T11:19:51.927Z,11.07
2022-12-01T11:22:23.237Z,11.35
2022-12-01T11:25:01.168Z,10.73
2022-12-01T11:27:30.533Z,11.38
2022-12-01T11:29:59.990Z,11.45
2022-12-01T11:32:29.037Z,10.43
2022-12-01T11:34:58.666Z,11.30
2022-12-01T11:37:36.514Z,10.73
2022-12-01T11:40:13.463Z,10.48
2022-12-01T11:42:40.708Z,12.00
2022-12-01T11:45:23.687Z,10.20
2022-12-01T11:48:02.751Z,11.27
2022-12-01T11:50:32.549Z,11.23
2022-12-01T11:53:01.295Z,10.80
2022-12-01T11:55:29.251Z,11.18
2022-12-01T11:58:02.751Z,10.88
2022-12-01T12:00:33.876Z,11.18
2022-12-01T12:03:18.586Z,11.10
2022-12-01T12:09:11.343Z,11.30
2022-12-01T12:11:45.016Z,10.93
2022-12-01T12:14:31.430Z,11.90
2022-12-01T12:17:15.008Z,11.33
2022-12-01T12:20:09.806Z,11.52
2022-12-01T12:22:46.900Z,12.40
2022-12-01T12:25:27.574Z,11.60
2022-12-01T12:28:13.426Z,10.80
2022-12-01T12:30:46.861Z,12.17
2022-12-01T12:33:48.865Z,11.38
2022-12-01T12:36:27.443Z,12.07
2022-12-01T12:39:05.808Z,11.18
2022-12-01T12:41:38.682Z,10.50
2022-12-01T12:44:33.811Z,11.17
2022-12-01T12:47:14.521Z,10.48
2022-12-01T12:49:47.590Z,10.77
2022-12-01T12:52:18.071Z,10.52
2022-12-01T12:54:50.719Z,10.55
2022-12-01T12:57:26.183Z,11.20
2022-12-01T12:59:57.508Z,11.02
2022-12-01T13:02:31.728Z,10.55
2022-12-01T13:05:04.722Z,11.27
2022-12-01T13:07:39.247Z,11.73
2022-12-01T13:10:16.127Z,9.87
2022-12-01T13:12:53.645Z,10.45
2022-12-01T13:15:21.887Z,11.57
2022-12-01T13:17:51.287Z,11.60
2022-12-01T13:20:22.053Z,10.90
2022-12-01T13:22:50.116Z,10.13
2022-12-01T13:25:26.969Z,11.43
2022-12-01T13:27:56.961Z,11.38
2022-12-01T13:30:26.937Z,11.95
2022-12-01T13:32:59.672Z,11.63
2022-12-01T13:35:29.385Z,11.40
2022-12-01T13:38:12.245Z,11.70
2022-12-01T13:40:39.315Z,11.35
2022-12-01T13:43:17.400Z,12.27
2022-12-01T13:45:44.137Z,12.00
2022-12-01T13:48:28.335Z,11.27
2022-12-01T13:50:58.813Z,11.38
2022-12-01T13:53:28.723Z,12.23
2022-12-01T13:56:00.839Z,11.65
2022-12-01T13:58:44.825Z,12.43
2022-12-01T14:01:43.406Z,12.30
2022-12-01T14:04:31.816Z,13.05
2022-12-01T14:07:33.377Z,11.75
2022-12-01T14:10:25.599Z,12.32
2022-12-01T14:12:54.782Z,13.18
2022-12-01T14:15:30.376Z,11.67
2022-12-01T14:18:03.834Z,11.30
2022-12-01T14:20:33.923Z,12.43
2022-12-01T14:23:17.103Z,13.00
2022-12-01T14:25:58.401Z,12.32
2022-12-01T14:28:58.177Z,12.17
2022-12-01T14:32:05.854Z,12.65
2022-12-01T14:34:33.884Z,13.43
2022-12-01T14:37:05.905Z,12.35
2022-12-01T14:39:34.733Z,12.57
2022-12-01T14:42:03.964Z,13.57
2022-12-01T14:44:36.246Z,12.63
2022-12-01T14:47:12.462Z,12.43
2022-12-01T14:49:43.583Z,11.35
2022-12-01T14:52:19.151Z,14.13
2022-12-01T14:54:49.615Z,14.87
2022-12-01T14:57:21.808Z,13.35
2022-12-01T15:00:02.202Z,11.18
2022-12-01T15:02:30.705Z,11.23
2022-12-01T15:05:09.441Z,12.95
2022-12-01T15:07:38.121Z,12.70
2022-12-01T15:10:05.985Z,13.52
2022-12-01T15:12:32.939Z,13.90
2022-12-01T15:14:59.550Z,11.77
2022-12-01T15:17:30.945Z,11.57
2022-12-01T15:19:57.874Z,13.63
2022-12-01T15:22:29.270Z,13.52
2022-12-01T15:25:04.897Z,12.15
2022-12-01T15:27:32.760Z,12.20
2022-12-01T15:30:01.290Z,12.65
2022-12-01T15:32:30.798Z,12.50
2022-12-01T15:34:59.068Z,12.73
2022-12-01T15:37:27.748Z,12.32
2022-12-01T15:40:10.080Z,12.30
2022-12-01T15:42:44.744Z,12.07
2022-12-01T15:45:18.946Z,11.63
2022-12-01T15:47:48.698Z,11.55
2022-12-01T15:50:27.579Z,16.38
2022-12-01T15:52:54.428Z,14.68
2022-12-01T15:55:25.648Z,13.15
2022-12-01T15:57:52.562Z,12.43
2022-12-01T16:00:20.007Z,12.93
2022-12-01T16:02:52.306Z,13.18
2022-12-01T16:05:22.455Z,11.23
2022-12-01T16:10:37.169Z,13.63
2022-12-01T16:13:35.199Z,11.70
2022-12-01T16:16:19.291Z,12.13
2022-12-01T16:18:55.091Z,12.50
2022-12-01T16:21:22.097Z,13.02
2022-12-01T16:23:49.021Z,11.80
2022-12-01T16:26:15.775Z,12.10
2022-12-01T16:28:42.347Z,12.43
2022-12-01T16:31:18.600Z,11.98
2022-12-01T16:33:45.771Z,12.98
2022-12-01T16:36:13.659Z,12.20
2022-12-01T16:38:40.506Z,12.48
2022-12-01T16:41:15.699Z,13.35
2022-12-01T16:43:59.119Z,12.60
2022-12-01T16:46:29.046Z,12.98
2022-12-01T16:48:55.649Z,12.90
2022-12-01T16:51:30.046Z,12.82
2022-12-01T16:54:09.341Z,13.07
2022-12-01T16:56:36.134Z,12.35
2022-12-01T16:59:02.784Z,13.30
2022-12-01T17:01:29.662Z,13.00
2022-12-01T17:03:56.658Z,13.07
2022-12-01T17:06:24.517Z,13.48
2022-12-01T17:08:51.313Z,12.43
2022-12-01T17:11:17.991Z,11.93
2022-12-01T17:13:44.556Z,12.70
2022-12-01T17:16:16.756Z,12.82
2022-12-01T17:18:44.835Z,13.73
2022-12-01T17:21:11.634Z,13.88
2022-12-01T17:23:39.720Z,14.75
2022-12-01T17:26:08.893Z,13.53
2022-12-01T17:28:35.814Z,14.50
2022-12-01T17:31:03.724Z,15.40
2022-12-01T17:33:31.865Z,17.05
2022-12-01T17:36:03.676Z,15.68
2022-12-01T17:38:30.350Z,14.40
2022-12-01T17:41:05.731Z,14.13
2022-12-01T17:43:33.166Z,14.32
2022-12-01T17:46:00.206Z,14.88
2022-12-01T17:48:26.953Z,14.02
2022-12-01T17:50:53.513Z,15.20
2022-12-01T17:53:20.125Z,15.88
2022-12-01T17:55:46.700Z,18.50
2022-12-01T17:58:14.668Z,16.50
2022-12-01T18:00:41.237Z,15.63
2022-12-01T18:03:07.997Z,14.90
2022-12-01T18:05:34.820Z,14.68
2022-12-01T18:08:01.425Z,15.75
2022-12-01T18:10:28.117Z,14.50
2022-12-01T18:12:54.639Z,15.77
2022-12-01T18:15:22.630Z,13.33
2022-12-01T18:17:49.204Z,13.95
2022-12-01T18:20:19.190Z,14.27
2022-12-01T18:22:46.021Z,14.18
2022-12-01T18:25:13.050Z,13.90
2022-12-01T18:27:39.596Z,13.20
2022-12-01T18:30:07.460Z,12.65
2022-12-01T18:32:35.312Z,12.95
2022-12-01T18:35:02.022Z,13.07
2022-12-01T18:37:28.624Z,13.38
2022-12-01T18:39:55.563Z,12.60
2022-12-01T18:42:22.163Z,13.50
2022-12-01T18:44:49.033Z,13.10
2022-12-01T18:47:15.757Z,13.45
2022-12-01T18:49:43.842Z,12.85
2022-12-01T18:52:10.485Z,13.67
2022-12-01T18:54:37.182Z,14.95
2022-12-01T18:57:03.835Z,15.07
2022-12-01T18:59:30.397Z,14.52
2022-12-01T19:01:57.059Z,12.68
2022-12-01T19:04:23.711Z,14.10
2022-12-01T19:06:51.679Z,14.00
2022-12-01T19:09:18.339Z,14.15
2022-12-01T19:11:44.971Z,14.13
2022-12-01T19:14:15.637Z,13.57
2022-12-01T19:16:42.735Z,12.93
2022-12-01T19:19:10.038Z,13.80
2022-12-01T19:21:36.565Z,12.80
2022-12-01T19:24:05.007Z,13.20
2022-12-01T19:26:31.555Z,12.98
2022-12-01T19:28:58.341Z,13.40
2022-12-01T19:31:25.001Z,12.68
2022-12-01T19:33:52.308Z,13.85
2022-12-01T19:36:22.286Z,13.07
2022-12-01T19:38:50.689Z,13.43
2022-12-01T19:41:21.188Z,13.03
2022-12-01T19:43:49.814Z,12.85
2022-12-01T19:46:20.543Z,13.15
2022-12-01T19:48:53.576Z,12.93
2022-12-01T19:51:24.375Z,13.15
2022-12-01T19:53:51.544Z,13.00
2022-12-01T19:56:19.658Z,12.65
2022-12-01T19:58:46.411Z,12.07
2022-12-01T20:01:14.642Z,12.57
2022-12-01T20:03:42.232Z,12.13
2022-12-01T20:06:10.465Z,13.23
2022-12-01T20:08:37.141Z,12.20
2022-12-01T20:11:04.561Z,14.52
2022-12-01T20:13:33.413Z,14.30
2022-12-01T20:16:04.177Z,12.07
2022-12-01T20:18:30.920Z,11.67
2022-12-01T20:21:05.747Z,12.25
2022-12-01T20:23:32.533Z,12.10
2022-12-01T20:26:00.356Z,11.32
2022-12-01T20:28:27.006Z,11.75
2022-12-01T20:30:57.924Z,11.93
2022-12-01T20:33:25.530Z,12.02
2022-12-01T20:35:52.475Z,11.52
2022-12-01T20:38:24.281Z,12.00
2022-12-01T20:40:53.784Z,12.02
2022-12-01T20:43:20.382Z,11.70
2022-12-01T20:45:47.073Z,11.18
2022-12-01T20:48:15.487Z,12.20
2022-12-01T20:50:42.076Z,11.77
2022-12-01T20:53:09.660Z,12.10
2022-12-01T20:55:36.564Z,12.40
2022-12-01T20:58:04.049Z,12.02
2022-12-01T21:00:31.185Z,12.75
2022-12-01T21:02:57.853Z,11.52
2022-12-01T21:05:26.722Z,12.07
2022-12-01T21:07:54.093Z,10.63
2022-12-01T21:10:21.170Z,11.63
2022-12-01T21:12:51.863Z,11.95
2022-12-01T21:15:25.091Z,11.27
2022-12-01T21:17:56.177Z,11.35
2022-12-01T21:20:30.320Z,12.37
2022-12-01T21:23:01.591Z,12.57
2022-12-01T21:25:28.255Z,11.98
2022-12-01T21:27:57.862Z,12.65
2022-12-01T21:30:24.814Z,12.70
2022-12-01T21:32:52.808Z,12.07
2022-12-01T21:35:22.731Z,11.55
2022-12-01T21:37:54.602Z,11.45
2022-12-01T21:40:23.144Z,11.82
2022-12-01T21:42:50.538Z,12.07
2022-12-01T21:45:22.072Z,11.27
2022-12-01T21:47:48.664Z,11.25
2022-12-01T21:50:19.453Z,12.18
2022-12-01T21:52:46.798Z,11.70
2022-12-01T21:55:35.726Z,11.52
2022-12-01T21:58:02.410Z,11.10
2022-12-01T22:00:31.103Z,11.73
2022-12-01T22:03:05.470Z,11.75
2022-12-01T22:05:37.634Z,12.05
2022-12-01T22:08:15.716Z,11.15
2022-12-01T22:11:01.499Z,10.70
2022-12-01T22:13:38.324Z,12.18
2022-12-01T22:16:05.196Z,11.32
2022-12-01T22:18:36.292Z,10.43
2022-12-01T22:21:33.105Z,11.98
2022-12-01T22:24:14.407Z,11.67
2022-12-01T22:26:45.992Z,11.43
2022-12-01T22:29:24.690Z,11.85
2022-12-01T22:31:51.933Z,12.25
2022-12-01T22:34:20.093Z,11.75
2022-12-01T22:36:46.855Z,11.67
2022-12-01T22:39:28.818Z,11.88
2022-12-01T22:42:00.198Z,12.18
2022-12-01T22:44:30.083Z,11.07
2022-12-01T22:47:00.412Z,11.23
2022-12-01T22:49:26.998Z,11.90
2022-12-01T22:51:59.721Z,10.90
2022-12-01T22:54:34.800Z,12.05
2022-12-01T22:57:28.602Z,11.88
2022-12-01T22:59:55.534Z,11.18
2022-12-01T23:02:24.468Z,12.27
2022-12-01T23:04:54.982Z,11.23
2022-12-01T23:07:31.153Z,11.68
2022-12-01T23:10:05.334Z,11.35
2022-12-01T23:12:34.855Z,12.48
2022-12-01T23:15:22.379Z,11.53
2022-12-01T23:17:49.620Z,11.18
2022-12-01T23:20:30.705Z,11.40
2022-12-01T23:23:00.402Z,11.77
2022-12-01T23:25:27.931Z,12.07
2022-12-01T23:27:59.213Z,11.57
2022-12-01T23:30:26.488Z,11.23
2022-12-01T23:33:02.786Z,11.90
2022-12-01T23:35:29.592Z,11.27
2022-12-01T23:37:56.241Z,11.68
2022-12-01T23:40:29.959Z,11.87
2022-12-01T23:43:10.007Z,12.00
2022-12-01T23:45:36.955Z,11.05
2022-12-01T23:48:10.824Z,11.02
2022-12-01T23:50:37.799Z,10.10
2022-12-01T23:53:04.471Z,11.23
2022-12-01T23:55:31.658Z,11.57
2022-12-01T23:57:59.618Z,12.07
